Time;durP1;ratioP1;P1;durP2;ratioP2;P2;SDS_P1;SDS_P2;PMS_P1;PMS_P2;Temp;Humidity;BMP_temperature;BMP_pressure;BME280_temperature;BME280_humidity;BME280_pressure;Samples;Min_cycle;Max_cycle;Signal;HPM_P1;HPM_P2
2022/12/09 00:01:21;;;;;;;1999.90;999.90;;;;;;;3.34;100.00;97223.88;5049398;28;20470;-76
2022/12/09 00:03:47;;;;;;;1999.90;999.90;;;;;;;3.38;100.00;97230.38;5047650;28;20025;-77
2022/12/09 00:06:20;;;;;;;1999.90;999.90;;;;;;;3.34;100.00;97219.28;5050375;28;20040;-76
2022/12/09 00:08:46;;;;;;;1999.90;999.90;;;;;;;3.42;100.00;97239.53;5049473;28;20021;-76
2022/12/09 00:11:11;;;;;;;1999.90;999.90;;;;;;;3.26;100.00;97227.09;5049309;28;20025;-76
2022/12/09 00:13:37;;;;;;;1999.90;999.90;;;;;;;3.32;100.00;97231.44;5050178;28;20079;-75
2022/12/09 00:16:08;;;;;;;1999.90;999.90;;;;;;;3.33;100.00;97231.16;5049641;28;20474;-74
2022/12/09 00:18:34;;;;;;;1999.90;999.90;;;;;;;3.44;100.00;97234.69;5047072;28;20428;-75
2022/12/09 00:21:13;;;;;;;1999.90;999.90;;;;;;;3.48;100.00;97219.53;5049794;28;20028;-76
2022/12/09 00:23:39;;;;;;;1999.90;999.90;;;;;;;3.46;100.00;97216.31;5047960;28;20480;-74
2022/12/09 00:26:04;;;;;;;1999.90;999.90;;;;;;;3.39;100.00;97213.06;5049340;28;20100;-74
2022/12/09 00:28:30;;;;;;;1999.90;999.90;;;;;;;3.41;100.00;97214.44;5049325;28;20033;-75
2022/12/09 00:30:59;;;;;;;1999.90;999.90;;;;;;;3.38;100.00;97204.16;5049988;28;20474;-74
2022/12/09 00:33:25;;;;;;;1999.90;999.90;;;;;;;3.32;100.00;97204.41;5050196;28;20035;-76
2022/12/09 00:35:50;;;;;;;1999.90;999.90;;;;;;;3.32;100.00;97204.41;5049878;28;20037;-74
2022/12/09 00:38:15;;;;;;;1999.90;999.90;;;;;;;3.39;100.00;97218.47;5050589;28;20490;-74
2022/12/09 00:40:41;;;;;;;1999.90;999.90;;;;;;;3.38;100.00;97209.56;5054036;28;20095;-75
2022/12/09 00:43:06;;;;;;;1999.90;999.90;;;;;;;3.42;100.00;97212.50;5056999;28;20086;-75
2022/12/09 00:45:31;;;;;;;1999.90;999.90;;;;;;;3.44;100.00;97208.50;5054881;28;20029;-74
2022/12/09 00:47:57;;;;;;;1999.90;999.90;;;;;;;3.46;100.00;97210.91;5053513;28;20029;-76
2022/12/09 00:50:22;;;;;;;1999.90;999.90;;;;;;;3.49;100.00;97215.78;5053195;28;20021;-74
2022/12/09 00:52:47;;;;;;;1999.90;999.90;;;;;;;3.43;100.00;97209.56;5053073;28;20504;-74
2022/12/09 00:55:13;;;;;;;1999.90;999.90;;;;;;;3.30;100.00;97220.06;5053157;28;20025;-74
2022/12/09 00:57:39;;;;;;;1999.90;999.90;;;;;;;3.38;100.00;97212.25;5053014;28;20076;-73
2022/12/09 01:00:05;;;;;;;1999.90;999.90;;;;;;;3.44;100.00;97213.06;5053035;28;20025;-73
2022/12/09 01:02:30;;;;;;;1999.90;999.90;;;;;;;3.49;100.00;97222.00;5053150;28;20029;-74
2022/12/09 01:04:56;;;;;;;1999.90;999.90;;;;;;;3.46;100.00;97216.31;5052708;28;20551;-76
2022/12/09 01:07:21;;;;;;;1999.90;999.90;;;;;;;3.50;100.00;97226.34;5052793;28;20118;-74
2022/12/09 01:09:47;;;;;;;1999.90;999.90;;;;;;;3.51;100.00;97219.03;5052961;28;20484;-74
2022/12/09 01:12:12;;;;;;;1999.90;999.90;;;;;;;3.55;100.00;97220.91;5053014;28;20021;-74
2022/12/09 01:14:37;;;;;;;1999.90;999.90;;;;;;;3.55;100.00;97225.50;5052903;28;20029;-76
2022/12/09 01:17:03;;;;;;;1999.90;999.90;;;;;;;3.49;100.00;97221.19;5055584;28;20068;-75
2022/12/09 01:19:28;;;;;;;1999.90;999.90;;;;;;;3.47;100.00;97207.13;5052879;28;20029;-73
2022/12/09 01:21:54;;;;;;;1999.90;999.90;;;;;;;3.50;100.00;97220.94;5052457;28;20481;-76
2022/12/09 01:24:19;;;;;;;1999.90;999.90;;;;;;;3.45;100.00;97220.09;5052576;28;20497;-76
2022/12/09 01:26:45;;;;;;;1999.90;999.90;;;;;;;3.38;100.00;97214.97;5052698;28;20033;-74
2022/12/09 01:29:10;;;;;;;1999.90;999.90;;;;;;;3.53;100.00;97214.16;5052630;28;20029;-74
2022/12/09 01:31:35;;;;;;;1999.90;999.90;;;;;;;3.56;100.00;97210.94;5052517;28;20025;-76
2022/12/09 01:34:01;;;;;;;1999.90;999.90;;;;;;;3.50;100.00;97207.41;5052613;28;20104;-76
2022/12/09 01:36:28;;;;;;;1999.90;999.90;;;;;;;3.51;100.00;97213.63;5052845;28;20032;-76
2022/12/09 01:38:56;;;;;;;1999.90;999.90;;;;;;;3.49;100.00;97205.78;5052664;28;20086;-76
2022/12/09 01:41:22;;;;;;;1999.90;999.90;;;;;;;3.40;100.00;97203.88;5053067;28;20028;-76
2022/12/09 01:44:07;;;;;;;1999.90;999.90;;;;;;;3.47;100.00;97209.84;5053874;28;20075;-76
2022/12/09 01:46:33;;;;;;;1999.90;999.90;;;;;;;3.46;100.00;97200.91;5053250;28;20025;-76
2022/12/09 01:48:59;;;;;;;1999.90;999.90;;;;;;;3.49;100.00;97194.16;5052677;28;20948;-77
2022/12/09 01:51:24;;;;;;;1999.90;999.90;;;;;;;3.53;100.00;97196.06;5052368;28;20036;-76
2022/12/09 01:53:50;;;;;;;1999.90;999.90;;;;;;;3.53;100.00;97193.34;5052180;28;20082;-74
2022/12/09 01:56:21;;;;;;;1999.90;999.90;;;;;;;3.46;100.00;97184.69;5051547;28;20033;-76
2022/12/09 01:58:48;;;;;;;1999.90;999.90;;;;;;;3.52;100.00;97177.41;5052006;28;20052;-75
2022/12/09 02:01:14;;;;;;;1999.90;999.90;;;;;;;3.56;100.00;97183.88;5051841;28;20046;-76
2022/12/09 02:03:40;;;;;;;1999.90;999.90;;;;;;;3.54;100.00;97183.34;5051870;28;20033;-76
2022/12/09 02:06:05;;;;;;;1999.90;999.90;;;;;;;3.49;100.00;97162.53;5051729;28;20375;-75
2022/12/09 02:08:31;;;;;;;1999.90;999.90;;;;;;;3.51;100.00;97168.47;5051899;28;20033;-76
2022/12/09 02:11:02;;;;;;;1999.90;999.90;;;;;;;3.56;100.00;97159.56;5052643;28;20028;-76
2022/12/09 02:14:02;;;;;;;1999.90;999.90;;;;;;;3.63;100.00;97162.81;5053489;28;20029;-75
2022/12/09 02:16:31;;;;;;;1999.90;999.90;;;;;;;3.52;100.00;97162.00;5049746;28;20124;-76
2022/12/09 02:19:10;;;;;;;1999.90;999.90;;;;;;;3.62;100.00;97166.59;5051777;28;20029;-76
2022/12/09 02:21:59;;;;;;;1999.90;999.90;;;;;;;3.56;100.00;97162.25;5051734;28;20371;-76
2022/12/09 02:24:42;;;;;;;1999.90;999.90;;;;;;;3.52;100.00;97161.16;5048450;28;20039;-77
2022/12/09 02:27:35;;;;;;;1999.90;999.90;;;;;;;3.53;100.00;97152.00;5051595;28;20560;-75
2022/12/09 02:30:00;;;;;;;1999.90;999.90;;;;;;;3.54;100.00;97153.63;5051059;28;20033;-76
2022/12/09 02:33:03;;;;;;;1999.90;999.90;;;;;;;3.56;100.00;97140.63;5051440;28;20032;-74
2022/12/09 02:35:36;;;;;;;1999.90;999.90;;;;;;;3.52;100.00;97142.25;5049994;28;20036;-76
2022/12/09 02:38:22;;;;;;;1999.90;999.90;;;;;;;3.53;100.00;97141.19;5051306;28;20029;-77
2022/12/09 02:41:02;;;;;;;;;;;;;;;3.50;100.00;97141.72;5051608;28;20021;-75
2022/12/09 02:43:38;;;;;;;1999.90;999.90;;;;;;;3.51;100.00;97144.13;5050288;28;19924;-77
2022/12/09 02:46:07;;;;;;;1999.90;999.90;;;;;;;3.49;100.00;97130.09;5052353;28;20068;-78
2022/12/09 02:48:45;;;;;;;1999.90;999.90;;;;;;;3.53;100.00;97133.06;5059212;28;20079;-78
2022/12/09 02:51:15;;;;;;;1999.90;999.90;;;;;;;3.53;100.00;97125.78;5052753;28;20033;-74
2022/12/09 02:53:43;;;;;;;1999.90;999.90;;;;;;;3.44;100.00;97116.59;5051277;28;20895;-76
2022/12/09 02:56:10;;;;;;;1999.90;999.90;;;;;;;3.38;100.00;97112.28;5050980;28;20079;-75
2022/12/09 02:58:37;;;;;;;1999.90;999.90;;;;;;;3.43;100.00;97114.97;5050917;28;20024;-76
2022/12/09 03:01:03;;;;;;;1999.90;999.90;;;;;;;3.45;100.00;97117.38;5050902;28;20033;-77
2022/12/09 03:03:32;;;;;;;1999.90;999.90;;;;;;;3.32;100.00;97113.31;5049351;28;20040;-76
2022/12/09 03:06:06;;;;;;;1999.90;999.90;;;;;;;3.40;100.00;97120.09;5052168;28;20061;-80
2022/12/09 03:08:51;;;;;;;1999.90;999.90;;;;;;;3.31;100.00;97105.50;5050278;28;20425;-75
2022/12/09 03:11:19;;;;;;;1999.90;999.90;;;;;;;3.44;100.00;97107.66;5050510;28;20029;-75
2022/12/09 03:14:03;;;;;;;1999.90;999.90;;;;;;;3.50;100.00;97103.88;5051007;28;20363;-76
2022/12/09 03:16:41;;;;;;;1999.90;999.90;;;;;;;3.47;100.00;97099.03;5048929;28;20037;-75
2022/12/09 03:19:19;;;;;;;1999.90;999.90;;;;;;;3.48;100.00;97104.13;5049286;28;20073;-76
2022/12/09 03:21:46;;;;;;;1999.90;999.90;;;;;;;3.46;100.00;97094.69;5050459;28;20033;-75
2022/12/09 03:24:17;;;;;;;1999.90;999.90;;;;;;;3.47;100.00;97099.84;5050507;28;20178;-75
2022/12/09 03:26:42;;;;;;;1999.90;999.90;;;;;;;3.52;100.00;97096.28;5050538;28;20170;-76
2022/12/09 03:29:16;;;;;;;1999.90;999.90;;;;;;;3.46;100.00;97091.97;5050597;28;20487;-74
2022/12/09 03:31:43;;;;;;;1999.90;999.90;;;;;;;3.34;100.00;97088.75;5050507;28;20041;-75
2022/12/09 03:34:12;;;;;;;1999.90;999.90;;;;;;;3.42;100.00;97090.88;5050566;28;20046;-76
2022/12/09 03:36:40;;;;;;;1999.90;999.90;;;;;;;3.32;100.00;97083.59;5050375;28;20025;-75
2022/12/09 03:39:09;;;;;;;1999.90;999.90;;;;;;;3.33;100.00;97081.72;5050470;28;20406;-75
2022/12/09 03:41:42;;;;;;;1999.90;999.90;;;;;;;3.32;100.00;97080.88;5050300;28;20102;-75
2022/12/09 03:44:16;;;;;;;1999.90;999.90;;;;;;;3.33;100.00;97084.41;5051101;28;20025;-75
2022/12/09 03:46:41;;;;;;;1999.90;999.90;;;;;;;3.30;100.00;97080.38;5048965;28;20025;-78
2022/12/09 03:49:07;;;;;;;1999.90;999.90;;;;;;;3.25;100.00;97077.69;5050217;28;20032;-76
2022/12/09 03:51:41;;;;;;;1999.90;999.90;;;;;;;3.21;100.00;97068.47;5050203;28;20056;-75
2022/12/09 03:54:23;;;;;;;1999.90;999.90;;;;;;;3.23;100.00;97077.13;5050224;28;20039;-75
2022/12/09 03:56:55;;;;;;;1999.90;999.90;;;;;;;3.24;100.00;97078.75;5038060;28;20128;-76
2022/12/09 03:59:22;;;;;;;1999.90;999.90;;;;;;;3.22;100.00;97073.63;5048699;28;20031;-77
2022/12/09 04:01:48;;;;;;;1999.90;999.90;;;;;;;3.15;100.00;97069.56;5046885;28;20024;-74
2022/12/09 04:04:14;;;;;;;1999.90;999.90;;;;;;;3.13;100.00;97074.44;5029828;28;20018;-76
2022/12/09 04:06:39;;;;;;;1999.90;999.90;;;;;;;3.19;100.00;97086.84;5029875;28;20044;-75
2022/12/09 04:09:05;;;;;;;1999.90;999.90;;;;;;;3.26;100.00;97083.91;5029914;28;20029;-75
2022/12/09 04:11:31;;;;;;;1999.90;999.90;;;;;;;3.30;100.00;97082.25;5029846;28;20091;-75
2022/12/09 04:13:57;;;;;;;1999.90;999.90;;;;;;;3.30;100.00;97082.25;5034302;28;20515;-75
2022/12/09 04:16:23;;;;;;;1999.90;999.90;;;;;;;3.43;100.00;97079.00;5049660;28;20108;-75
2022/12/09 04:18:48;;;;;;;1999.90;999.90;;;;;;;3.40;100.00;97083.06;5051894;28;20021;-74
2022/12/09 04:21:14;;;;;;;1999.90;999.90;;;;;;;3.44;100.00;97070.66;5053410;28;20055;-75
2022/12/09 04:23:39;;;;;;;1999.90;999.90;;;;;;;3.41;100.00;97086.59;5053579;28;20064;-75
2022/12/09 04:26:05;;;;;;;1999.90;999.90;;;;;;;3.39;100.00;97077.91;5053612;28;20021;-75
2022/12/09 04:28:30;;;;;;;1999.90;999.90;;;;;;;3.43;100.00;97089.81;5053418;28;20021;-74
2022/12/09 04:30:56;;;;;;;1999.90;999.90;;;;;;;3.40;100.00;97077.66;5053215;28;20022;-75
2022/12/09 04:33:22;;;;;;;1999.90;999.90;;;;;;;3.38;100.00;97077.13;5053460;28;20479;-75
2022/12/09 04:35:47;;;;;;;1999.90;999.90;;;;;;;3.42;100.00;97070.09;5053203;28;20021;-75
2022/12/09 04:38:12;;;;;;;1999.90;999.90;;;;;;;3.30;100.00;97066.84;5053270;28;20045;-75
2022/12/09 04:40:38;;;;;;;1999.90;999.90;;;;;;;3.35;100.00;97056.06;5052764;28;20393;-75
2022/12/09 04:43:03;;;;;;;1999.90;999.90;;;;;;;3.32;100.00;97063.91;5052957;28;20094;-75
2022/12/09 04:45:29;;;;;;;1999.90;999.90;;;;;;;3.37;100.00;97040.38;5053870;28;20367;-75
2022/12/09 04:47:54;;;;;;;1999.90;999.90;;;;;;;3.30;100.00;97056.03;5053616;28;20116;-75
2022/12/09 04:50:20;;;;;;;1999.90;999.90;;;;;;;3.30;100.00;97028.22;5050517;28;20024;-77
2022/12/09 04:52:45;;;;;;;1999.90;999.90;;;;;;;3.16;100.00;97009.06;5048393;28;20448;-75
2022/12/09 04:55:12;;;;;;;1999.90;999.90;;;;;;;3.11;100.00;97012.56;5057909;28;20029;-81
2022/12/09 04:57:38;;;;;;;1999.90;999.90;;;;;;;3.05;100.00;97004.72;5044124;28;20029;-75
2022/12/09 05:00:05;;;;;;;1999.90;999.90;;;;;;;3.00;100.00;97002.03;5033239;28;20076;-74
2022/12/09 05:02:30;;;;;;;1999.90;999.90;;;;;;;2.94;100.00;97003.94;5032943;28;20116;-76
2022/12/09 05:04:55;;;;;;;1999.90;999.90;;;;;;;3.07;100.00;97006.06;5032625;28;20133;-75
2022/12/09 05:07:22;;;;;;;1999.90;999.90;;;;;;;3.14;100.00;97009.31;5033138;28;20052;-75
2022/12/09 05:09:48;;;;;;;1999.90;999.90;;;;;;;3.18;100.00;97013.09;5049457;28;20382;-74
2022/12/09 05:12:13;;;;;;;1999.90;999.90;;;;;;;3.22;100.00;97019.59;5052702;28;20027;-75
2022/12/09 05:14:38;;;;;;;1999.90;999.90;;;;;;;3.16;100.00;97017.94;5052967;28;20078;-78
2022/12/09 05:17:06;;;;;;;1999.90;999.90;;;;;;;3.23;100.00;97028.47;5052486;28;20125;-77
2022/12/09 05:19:31;;;;;;;1999.90;999.90;;;;;;;3.28;100.00;97017.69;5052454;28;20498;-77
2022/12/09 05:21:56;;;;;;;1999.90;999.90;;;;;;;3.35;100.00;97015.53;5052421;28;20047;-77
2022/12/09 05:24:22;;;;;;;1999.90;999.90;;;;;;;3.35;100.00;97010.13;5052241;28;20454;-76
2022/12/09 05:26:47;;;;;;;1999.90;999.90;;;;;;;3.35;100.00;97003.91;5051439;28;20036;-78
2022/12/09 05:29:12;;;;;;;1999.90;999.90;;;;;;;3.33;100.00;97000.63;5051473;28;20074;-76
2022/12/09 05:31:38;;;;;;;1999.90;999.90;;;;;;;3.31;100.00;96997.41;5051737;28;20074;-76
2022/12/09 05:34:03;;;;;;;1999.90;999.90;;;;;;;3.40;100.00;96991.19;5050405;28;20674;-77
2022/12/09 05:36:28;;;;;;;1999.90;999.90;;;;;;;3.30;100.00;96993.09;5052088;28;20040;-75
2022/12/09 05:38:54;;;;;;;1999.90;999.90;;;;;;;3.37;100.00;96993.63;5052135;28;20036;-76
2022/12/09 05:41:21;;;;;;;1999.90;999.90;;;;;;;3.34;100.00;97000.38;5052011;28;20064;-75
2022/12/09 05:43:46;;;;;;;1999.90;999.90;;;;;;;3.19;100.00;97003.09;5052475;28;20393;-76
2022/12/09 05:46:13;;;;;;;1999.90;999.90;;;;;;;3.13;100.00;96994.19;5035851;28;20029;-75
2022/12/09 05:48:38;;;;;;;1999.90;999.90;;;;;;;3.14;100.00;97028.22;5031723;28;20029;-77
2022/12/09 05:51:13;;;;;;;1999.90;999.90;;;;;;;3.12;100.00;96997.97;5031923;28;20436;-76
2022/12/09 05:53:38;;;;;;;1999.90;999.90;;;;;;;3.14;100.00;97000.38;5031979;28;20032;-77
2022/12/09 05:56:03;;;;;;;1999.90;999.90;;;;;;;3.15;100.00;96993.91;5031830;28;20045;-76
2022/12/09 05:58:29;;;;;;;1999.90;999.90;;;;;;;3.04;100.00;96963.41;5030385;28;20030;-75
2022/12/09 06:00:57;;;;;;;1999.90;999.90;;;;;;;3.10;100.00;96975.81;5031480;28;20550;-76
2022/12/09 06:03:23;;;;;;;1999.90;999.90;;;;;;;3.04;100.00;96974.19;5031480;28;20037;-75
2022/12/09 06:05:48;;;;;;;1999.90;999.90;;;;;;;3.20;100.00;96970.41;5032009;28;20053;-76
2022/12/09 06:08:14;;;;;;;1999.90;999.90;;;;;;;3.18;100.00;96967.19;5031861;28;20049;-75
2022/12/09 06:10:40;;;;;;;1999.90;999.90;;;;;;;3.13;100.00;96967.16;5031548;28;20487;-75
2022/12/09 06:13:06;;;;;;;1999.90;999.90;;;;;;;3.23;100.00;96974.44;5031381;28;20021;-76
2022/12/09 06:15:32;;;;;;;1999.90;999.90;;;;;;;3.22;100.00;96975.53;5041900;28;20118;-75
2022/12/09 06:17:58;;;;;;;1999.90;999.90;;;;;;;3.29;100.00;96972.56;5050909;28;20037;-76
2022/12/09 06:20:23;;;;;;;1999.90;999.90;;;;;;;3.33;100.00;96970.91;5051581;28;20029;-75
2022/12/09 06:22:48;;;;;;;1999.90;999.90;;;;;;;3.36;100.00;96952.25;5051212;28;20818;-75
2022/12/09 06:25:14;;;;;;;1999.90;999.90;;;;;;;3.35;100.00;96969.59;5050918;28;20371;-76
2022/12/09 06:27:39;;;;;;;1999.90;999.90;;;;;;;3.41;100.00;96963.09;5062453;28;20152;-83
2022/12/09 06:30:05;;;;;;;1999.90;999.90;;;;;;;3.55;100.00;96961.41;5046931;28;20029;-77
2022/12/09 06:32:31;;;;;;;1999.90;999.90;;;;;;;3.44;100.00;96957.13;5034692;28;20087;-84
2022/12/09 06:34:56;;;;;;;1999.90;999.90;;;;;;;3.42;100.00;96947.66;5056796;28;20093;-85
2022/12/09 06:37:21;;;;;;;1999.90;999.90;;;;;;;3.35;100.00;96939.84;5055969;28;20040;-82
2022/12/09 06:39:47;;;;;;;1999.90;999.90;;;;;;;3.19;100.00;96952.59;5054332;28;20108;-82
2022/12/09 06:42:16;;;;;;;1999.90;999.90;;;;;;;3.14;100.00;96943.66;5056320;28;20050;-82
2022/12/09 06:44:41;;;;;;;1999.90;999.90;;;;;;;3.26;100.00;96940.69;5054511;28;20539;-85
2022/12/09 06:47:07;;;;;;;1999.90;999.90;;;;;;;3.41;100.00;96948.75;5047525;28;20014;-87
2022/12/09 06:49:32;;;;;;;1999.90;999.90;;;;;;;3.38;100.00;96949.31;5037966;28;20029;-76
2022/12/09 06:51:58;;;;;;;1999.90;999.90;;;;;;;3.30;100.00;96966.06;5033036;28;20471;-75
2022/12/09 06:54:23;;;;;;;1999.90;999.90;;;;;;;3.32;100.00;96970.09;5030639;28;20513;-76
2022/12/09 06:56:49;;;;;;;1999.90;999.90;;;;;;;3.51;100.00;96976.53;5030783;28;20032;-76
2022/12/09 06:59:14;;;;;;;1999.90;999.90;;;;;;;3.24;100.00;96966.09;5030890;28;20120;-77
2022/12/09 07:01:40;;;;;;;1999.90;999.90;;;;;;;3.39;100.00;96940.91;5037219;28;20408;-76
2022/12/09 07:04:05;;;;;;;1999.90;999.90;;;;;;;3.42;100.00;96969.28;5036589;28;20063;-80
2022/12/09 07:06:37;;;;;;;1999.90;999.90;;;;;;;3.55;100.00;96945.19;5035333;28;20049;-76
2022/12/09 07:09:06;;;;;;;1999.90;999.90;;;;;;;3.45;100.00;96963.31;5038444;28;20075;-77
2022/12/09 07:11:32;;;;;;;1999.90;999.90;;;;;;;3.61;100.00;96954.09;5050674;28;20036;-79
2022/12/09 07:13:58;;;;;;;1999.90;999.90;;;;;;;3.68;100.00;96927.56;5050354;28;20033;-79
2022/12/09 07:16:23;;;;;;;1999.90;999.90;;;;;;;3.52;100.00;96924.13;5050455;28;20025;-77
2022/12/09 07:18:49;;;;;;;1999.90;999.90;;;;;;;3.68;100.00;96911.34;5051633;28;20138;-81
2022/12/09 07:21:18;;;;;;;1999.90;999.90;;;;;;;3.56;100.00;96924.38;5050867;28;20540;-75
2022/12/09 07:23:44;;;;;;;1999.90;999.90;;;;;;;3.58;100.00;96935.72;5050106;28;20043;-76
2022/12/09 07:26:10;;;;;;;1999.90;999.90;;;;;;;3.69;100.00;96932.72;5050168;28;20474;-75
2022/12/09 07:28:38;;;;;;;1999.90;999.90;;;;;;;3.65;100.00;96955.16;5049592;28;20025;-76
2022/12/09 07:31:04;;;;;;;1999.90;999.90;;;;;;;3.73;100.00;96943.75;5050132;28;20031;-77
2022/12/09 07:33:29;;;;;;;1999.90;999.90;;;;;;;3.71;100.00;96943.25;5050057;28;20363;-77
2022/12/09 07:35:56;;;;;;;1999.90;999.90;;;;;;;3.73;100.00;96947.28;5050128;28;20079;-75
2022/12/09 07:38:23;;;;;;;1999.90;999.90;;;;;;;3.72;100.00;96942.16;5050297;28;20029;-75
2022/12/09 07:40:49;;;;;;;1999.90;999.90;;;;;;;3.80;100.00;96930.75;5050134;28;20071;-77
2022/12/09 07:43:14;;;;;;;1999.90;999.90;;;;;;;3.70;100.00;96933.50;5050105;28;20080;-75
2022/12/09 07:45:39;;;;;;;1999.90;999.90;;;;;;;3.76;100.00;96921.56;5050658;28;20083;-77
2022/12/09 07:48:07;;;;;;;1999.90;999.90;;;;;;;3.53;100.00;96941.16;5050288;28;20025;-75
2022/12/09 07:50:33;;;;;;;1999.90;999.90;;;;;;;3.65;100.00;96901.91;5050269;28;20493;-75
2022/12/09 07:52:58;;;;;;;1999.90;999.90;;;;;;;3.68;100.00;96909.47;5050230;28;20021;-75
2022/12/09 07:55:23;;;;;;;1999.90;999.90;;;;;;;3.73;100.00;96916.72;5055390;28;20066;-74
2022/12/09 07:57:49;;;;;;;1999.90;999.90;;;;;;;3.78;100.00;96898.59;5054027;28;20033;-76
2022/12/09 08:00:14;;;;;;;1999.90;999.90;;;;;;;3.82;100.00;96912.38;5054400;28;20479;-75
2022/12/09 08:02:40;;;;;;;1999.90;999.90;;;;;;;3.85;100.00;96902.91;5054081;28;20071;-74
2022/12/09 08:05:06;;;;;;;1999.90;999.90;;;;;;;4.56;100.00;96889.69;5054117;28;20120;-75
2022/12/09 08:07:32;;;;;;;1999.90;999.90;;;;;;;4.61;100.00;96889.66;5054133;28;20075;-74
2022/12/09 08:09:57;;;;;;;1999.90;999.90;;;;;;;4.34;100.00;96884.72;5054128;28;20064;-74
2022/12/09 08:12:23;;;;;;;1999.90;999.90;;;;;;;4.27;100.00;96879.63;5054032;28;20440;-76
2022/12/09 08:14:49;;;;;;;1999.90;999.90;;;;;;;4.17;100.00;96877.00;5054385;28;20025;-75
2022/12/09 08:17:15;;;;;;;1999.90;999.90;;;;;;;4.07;100.00;96874.34;5053732;28;20170;-76
2022/12/09 08:19:40;;;;;;;1999.90;999.90;;;;;;;4.16;100.00;96872.69;5054461;28;20119;-75
2022/12/09 08:22:05;;;;;;;1999.90;999.90;;;;;;;4.08;100.00;96875.16;5053788;28;20032;-74
2022/12/09 08:24:31;;;;;;;1999.90;999.90;;;;;;;3.97;100.00;96869.03;5053840;28;20170;-75
2022/12/09 08:26:56;;;;;;;1999.90;999.90;;;;;;;3.91;100.00;96872.03;5053825;28;20478;-74
2022/12/09 08:29:22;;;;;;;1999.90;999.90;;;;;;;3.81;100.00;96850.44;5053848;28;20033;-75
2022/12/09 08:31:47;;;;;;;1999.90;999.90;;;;;;;3.82;100.00;96849.38;5053905;28;20033;-75
2022/12/09 08:34:13;;;;;;;1999.90;999.90;;;;;;;3.79;100.00;96848.00;5053558;28;20021;-74
2022/12/09 08:36:39;;;;;;;1999.90;999.90;;;;;;;3.94;100.00;96847.13;5053271;28;20029;-74
2022/12/09 08:39:05;;;;;;;1999.90;999.90;;;;;;;3.97;100.00;96839.25;5053516;28;20028;-74
2022/12/09 08:41:36;;;;;;;1999.90;999.90;;;;;;;3.93;100.00;96848.19;5053568;28;20032;-75
2022/12/09 08:44:04;;;;;;;1999.90;999.90;;;;;;;4.02;100.00;96850.03;5053494;28;20112;-75
2022/12/09 08:46:31;;;;;;;1999.90;999.90;;;;;;;3.97;100.00;96839.25;5053526;28;20061;-74
2022/12/09 08:48:57;;;;;;;1999.90;999.90;;;;;;;3.98;100.00;96842.78;5054458;28;20557;-75
2022/12/09 08:51:22;;;;;;;1999.90;999.90;;;;;;;3.98;100.00;96835.44;5053478;28;20021;-76
2022/12/09 08:53:47;;;;;;;1999.90;999.90;;;;;;;4.06;100.00;96834.88;5053196;28;20075;-77
2022/12/09 08:56:14;;;;;;;1999.90;999.90;;;;;;;4.15;100.00;96822.34;5053168;28;20075;-77
2022/12/09 08:58:40;;;;;;;1999.90;999.90;;;;;;;4.12;100.00;96819.41;5053158;28;20028;-77
2022/12/09 09:01:06;;;;;;;1999.90;999.90;;;;;;;4.25;100.00;96822.28;5053038;28;20029;-76
2022/12/09 09:03:31;;;;;;;1999.90;999.90;;;;;;;4.14;100.00;96828.84;5053038;28;20035;-76
2022/12/09 09:06:02;;;;;;;1999.90;999.90;;;;;;;4.08;100.00;96827.28;5051880;28;20048;-75
2022/12/09 09:08:27;;;;;;;1999.90;999.90;;;;;;;4.00;100.00;96818.97;5053604;28;20390;-78
2022/12/09 09:10:53;;;;;;;1999.90;999.90;;;;;;;4.01;100.00;96807.84;5056098;28;20025;-77
2022/12/09 09:13:19;;;;;;;1999.90;999.90;;;;;;;4.02;100.00;96814.88;5062666;28;20028;-75
2022/12/09 09:15:44;;;;;;;1999.90;999.90;;;;;;;4.13;100.00;96827.25;5059940;28;20027;-75
2022/12/09 09:18:09;;;;;;;1999.90;999.90;;;;;;;4.15;100.00;96818.84;5053178;28;20743;-75
2022/12/09 09:20:35;;;;;;;1999.90;999.90;;;;;;;4.14;100.00;96817.22;5051571;28;20437;-75
2022/12/09 09:23:00;;;;;;;1999.90;999.90;;;;;;;4.17;100.00;96805.81;5051421;28;20029;-75
2022/12/09 09:25:25;;;;;;;1999.90;999.90;;;;;;;4.16;100.00;96817.75;5051604;28;20036;-75
2022/12/09 09:27:50;;;;;;;1999.90;999.90;;;;;;;4.20;100.00;96814.19;5054696;28;20032;-75
2022/12/09 09:30:16;;;;;;;1999.90;999.90;;;;;;;4.09;100.00;96809.97;5054606;28;20159;-76
2022/12/09 09:32:41;;;;;;;1999.90;999.90;;;;;;;4.19;100.00;96793.66;5053795;28;20079;-77
2022/12/09 09:35:06;;;;;;;1999.90;999.90;;;;;;;4.18;100.00;96799.31;5052511;28;20111;-75
2022/12/09 09:37:32;;;;;;;1999.90;999.90;;;;;;;4.11;100.00;96794.25;5052339;28;20095;-76
2022/12/09 09:39:57;;;;;;;1999.90;999.90;;;;;;;4.14;100.00;96776.63;5052425;28;20033;-75
2022/12/09 09:42:36;;;;;;;1999.90;999.90;;;;;;;4.25;100.00;96778.97;5052376;28;20079;-76
2022/12/09 09:45:10;;;;;;;1999.90;999.90;;;;;;;4.29;100.00;96788.13;5051456;28;20040;-75
2022/12/09 09:47:41;;;;;;;1999.90;999.90;;;;;;;4.35;100.00;96780.78;5052311;28;20033;-75
2022/12/09 09:50:26;;;;;;;1999.90;999.90;;;;;;;4.36;100.00;96779.69;5052728;28;20025;-75
2022/12/09 09:52:53;;;;;;;1999.90;999.90;;;;;;;4.35;100.00;96777.28;5052232;28;20033;-77
2022/12/09 09:55:27;;;;;;;1999.90;999.90;;;;;;;4.37;100.00;96765.06;5052281;28;20060;-75
2022/12/09 09:58:12;;;;;;;1999.90;999.90;;;;;;;4.31;100.00;96758.91;5052264;28;20025;-75
2022/12/09 10:00:49;;;;;;;1999.90;999.90;;;;;;;4.22;100.00;96752.50;5051959;28;20104;-75
2022/12/09 10:03:56;;;;;;;1999.90;999.90;;;;;;;4.28;100.00;96734.31;5052099;28;20021;-76
2022/12/09 10:06:59;;;;;;;1999.90;999.90;;;;;;;4.31;100.00;96721.00;5051703;28;20060;-75
2022/12/09 10:09:47;;;;;;;1999.90;999.90;;;;;;;4.39;100.00;96718.75;5040215;28;20044;-75
2022/12/09 10:12:22;;;;;;;1999.90;999.90;;;;;;;4.39;100.00;96719.56;5051670;28;20040;-75
2022/12/09 10:15:08;;;;;;;1999.90;999.90;;;;;;;4.38;100.00;96720.69;5051734;28;20425;-76
2022/12/09 10:17:43;;;;;;;1999.90;999.90;;;;;;;4.42;100.00;96721.69;5049976;28;20041;-77
2022/12/09 10:20:14;;;;;;;1999.90;999.90;;;;;;;4.49;100.00;96727.59;5052250;28;20029;-75
2022/12/09 10:22:41;;;;;;;1999.90;999.90;;;;;;;4.39;100.00;96700.63;5051889;28;20045;-76
2022/12/09 10:25:16;;;;;;;1999.90;999.90;;;;;;;4.53;100.00;96715.09;5052774;28;20120;-75
2022/12/09 10:27:51;;;;;;;1999.90;999.90;;;;;;;4.55;100.00;96693.13;5054492;28;20025;-76
2022/12/09 10:30:18;;;;;;;1999.90;999.90;;;;;;;4.58;100.00;96706.91;5053037;28;20028;-77
2022/12/09 10:32:44;;;;;;;1999.90;999.90;;;;;;;4.60;100.00;96701.22;5053810;28;20112;-74
2022/12/09 10:35:21;;;;;;;1999.90;999.90;;;;;;;4.61;100.00;96705.53;5051483;28;20116;-74
2022/12/09 10:37:50;;;;;;;1999.90;999.90;;;;;;;4.51;100.00;96709.16;5051521;28;20033;-75
2022/12/09 10:40:31;;;;;;;1999.90;999.90;;;;;;;4.45;100.00;96694.06;5051414;28;20112;-76
2022/12/09 10:45:48;;;;;;;1999.90;999.90;;;;;;;4.38;100.00;96687.38;5051290;28;20127;-74
2022/12/09 10:48:28;;;;;;;1999.90;999.90;;;;;;;4.13;100.00;96688.44;5051309;28;20467;-76
2022/12/09 10:50:56;;;;;;;1999.90;999.90;;;;;;;4.11;100.00;96683.31;5051177;28;20024;-75
2022/12/09 10:53:22;;;;;;;1999.90;999.90;;;;;;;4.15;100.00;96676.25;5050889;28;20021;-75
2022/12/09 10:55:53;;;;;;;1999.90;999.90;;;;;;;4.17;100.00;96682.16;5050856;28;20025;-75
2022/12/09 10:58:19;;;;;;;1999.90;999.90;;;;;;;4.10;100.00;96689.03;5051169;28;20029;-74
2022/12/09 11:01:02;;;;;;;1999.90;999.90;;;;;;;4.14;100.00;96693.56;5050939;28;20037;-77
2022/12/09 11:03:38;;;;;;;1999.90;999.90;;;;;;;4.15;100.00;96680.84;5050787;28;20367;-75